createdAt,value
2016-07-09T00:00:01.140Z,18.4
2016-07-09T00:00:11.135Z,18.3
2016-07-09T00:00:21.131Z,18.4
2016-07-09T00:00:31.125Z,18.3
2016-07-09T00:00:41.121Z,18.4
2016-07-09T00:00:51.116Z,18.3
2016-07-09T00:01:01.111Z,18.3
2016-07-09T00:01:11.106Z,18.3
2016-07-09T00:01:21.101Z,18.3
2016-07-09T00:01:31.097Z,18.3
2016-07-09T00:01:41.092Z,18.3
2016-07-09T00:01:51.086Z,18.2
2016-07-09T00:02:01.083Z,18.3
2016-07-09T00:02:11.078Z,18.3
2016-07-09T00:02:21.074Z,18.3
2016-07-09T00:02:31.069Z,18.3
2016-07-09T00:02:41.063Z,18.3
2016-07-09T00:02:51.061Z,18.3
2016-07-09T00:03:01.055Z,18.3
2016-07-09T00:03:11.048Z,18.2
2016-07-09T00:03:21.045Z,18.2
2016-07-09T00:03:31.039Z,18.2
2016-07-09T00:03:41.036Z,18.3
2016-07-09T00:03:51.030Z,18.3
2016-07-09T00:04:01.025Z,18.2
2016-07-09T00:04:11.033Z,18.3
2016-07-09T00:04:21.016Z,18.3
2016-07-09T00:04:31.011Z,18.2
2016-07-09T00:04:41.006Z,18.2
2016-07-09T00:04:50.999Z,18.2
2016-07-09T00:05:00.996Z,18.2
2016-07-09T00:05:10.992Z,18.2
2016-07-09T00:05:20.986Z,18.3
2016-07-09T00:05:30.983Z,18.2
2016-07-09T00:05:40.983Z,18.2
2016-07-09T00:05:50.974Z,18.2
2016-07-09T00:06:00.970Z,18.3
2016-07-09T00:06:10.963Z,18.2
2016-07-09T00:06:20.958Z,18.2
2016-07-09T00:06:30.954Z,18.2
2016-07-09T00:06:40.949Z,18.3
2016-07-09T00:06:50.946Z,18.2
2016-07-09T00:07:00.941Z,18.2
2016-07-09T00:07:10.934Z,18.2
2016-07-09T00:07:20.931Z,18.2
2016-07-09T00:07:30.927Z,18.2
2016-07-09T00:07:40.920Z,18.2
2016-07-09T00:07:50.915Z,18.2
2016-07-09T00:08:00.909Z,18.2
2016-07-09T00:08:10.905Z,18.2
2016-07-09T00:08:20.901Z,18.2
2016-07-09T00:08:30.896Z,18.2
2016-07-09T00:08:40.891Z,18.2
2016-07-09T00:08:50.887Z,18.2
2016-07-09T00:09:00.882Z,18.2
2016-07-09T00:09:10.878Z,18.2
2016-07-09T00:09:20.872Z,18.1
2016-07-09T00:09:30.868Z,18.2
2016-07-09T00:09:40.864Z,18.2
2016-07-09T00:09:50.859Z,18.2
2016-07-09T00:10:00.860Z,18.2
2016-07-09T00:10:10.847Z,18.1
2016-07-09T00:10:20.844Z,18.2
2016-07-09T00:10:30.839Z,18.1
2016-07-09T00:10:40.835Z,18.2
2016-07-09T00:10:50.829Z,18.1
2016-07-09T00:11:00.825Z,18.1
2016-07-09T00:11:10.826Z,18.1
2016-07-09T00:11:20.814Z,18.1
2016-07-09T00:11:30.810Z,18.1
2016-07-09T00:11:40.806Z,18.1
2016-07-09T00:11:50.813Z,18.1
2016-07-09T00:12:00.795Z,18.1
2016-07-09T00:12:10.791Z,18.1
2016-07-09T00:12:20.787Z,18.1
2016-07-09T00:12:30.782Z,18.1
2016-07-09T00:12:40.777Z,18.1
2016-07-09T00:12:50.772Z,18
2016-07-09T00:13:00.768Z,18.1
2016-07-09T00:13:10.763Z,18
2016-07-09T00:13:20.758Z,18
2016-07-09T00:13:30.753Z,18
2016-07-09T00:13:40.748Z,18
2016-07-09T00:13:50.744Z,18.1
2016-07-09T00:14:00.741Z,18.1
2016-07-09T00:14:10.734Z,18
2016-07-09T00:14:20.729Z,18
2016-07-09T00:14:30.725Z,18
2016-07-09T00:14:40.720Z,18.1
2016-07-09T00:14:50.714Z,18
2016-07-09T00:15:00.710Z,18
2016-07-09T00:15:10.704Z,18
2016-07-09T00:15:20.701Z,18.1
2016-07-09T00:15:30.695Z,18
2016-07-09T00:15:40.690Z,18
2016-07-09T00:15:50.686Z,18.1
2016-07-09T00:16:00.681Z,18
2016-07-09T00:16:10.676Z,18
2016-07-09T00:16:20.673Z,17.9
2016-07-09T00:16:30.670Z,17.9
2016-07-09T00:16:40.662Z,18
2016-07-09T00:16:50.657Z,18
2016-07-09T00:17:00.652Z,18
2016-07-09T00:17:10.650Z,18
2016-07-09T00:17:20.643Z,18
2016-07-09T00:17:30.639Z,18
2016-07-09T00:17:40.635Z,18
2016-07-09T00:17:50.629Z,17.9
2016-07-09T00:18:00.625Z,17.9
2016-07-09T00:18:10.618Z,17.9
2016-07-09T00:18:20.614Z,17.9
2016-07-09T00:18:30.609Z,18
2016-07-09T00:18:40.610Z,17.9
2016-07-09T00:18:50.600Z,17.9
2016-07-09T00:19:00.595Z,17.9
2016-07-09T00:19:10.590Z,17.9
2016-07-09T00:19:20.586Z,18
2016-07-09T00:19:30.582Z,17.9
2016-07-09T00:19:40.575Z,18
2016-07-09T00:19:50.575Z,17.9
2016-07-09T00:20:00.566Z,17.9
2016-07-09T00:20:10.562Z,17.9
2016-07-09T00:20:20.557Z,17.9
2016-07-09T00:20:30.553Z,17.9
2016-07-09T00:20:40.552Z,18
2016-07-09T00:20:50.542Z,17.9
2016-07-09T00:21:00.538Z,17.9
2016-07-09T00:21:10.533Z,17.9
2016-07-09T00:21:20.527Z,17.9
2016-07-09T00:21:30.524Z,18
2016-07-09T00:21:40.519Z,17.9
2016-07-09T00:21:50.514Z,18
2016-07-09T00:22:00.510Z,17.9
2016-07-09T00:22:10.503Z,17.9
2016-07-09T00:22:20.498Z,17.9
2016-07-09T00:22:30.495Z,17.9
2016-07-09T00:22:40.488Z,17.9
2016-07-09T00:22:50.484Z,17.9
2016-07-09T00:23:00.486Z,17.9
2016-07-09T00:23:10.475Z,17.9
2016-07-09T00:23:20.470Z,17.8
2016-07-09T00:23:30.466Z,17.9
2016-07-09T00:23:40.461Z,17.8
2016-07-09T00:23:50.459Z,17.9
2016-07-09T00:24:00.452Z,17.8
2016-07-09T00:24:10.447Z,17.8
2016-07-09T00:24:20.443Z,17.8
2016-07-09T00:24:30.439Z,17.9
2016-07-09T00:24:40.433Z,17.8
2016-07-09T00:24:50.427Z,17.8
2016-07-09T00:25:00.423Z,17.8
2016-07-09T00:25:10.419Z,17.9
2016-07-09T00:25:20.413Z,17.8
2016-07-09T00:25:30.407Z,17.9
2016-07-09T00:25:40.404Z,17.8
2016-07-09T00:25:50.398Z,17.9
2016-07-09T00:26:00.393Z,17.9
2016-07-09T00:26:10.389Z,17.8
2016-07-09T00:26:20.385Z,17.8
2016-07-09T00:26:30.381Z,17.9
2016-07-09T00:26:40.375Z,17.9
2016-07-09T00:26:50.369Z,17.8
2016-07-09T00:27:00.365Z,17.9
2016-07-09T00:27:10.361Z,17.8
2016-07-09T00:27:20.356Z,17.7
2016-07-09T00:27:30.351Z,17.8
2016-07-09T00:27:40.347Z,17.8
2016-07-09T00:27:50.342Z,17.9
2016-07-09T00:28:00.337Z,17.9
2016-07-09T00:28:10.333Z,17.8
2016-07-09T00:28:20.328Z,17.8
2016-07-09T00:28:30.326Z,17.8
2016-07-09T00:28:40.316Z,17.8
2016-07-09T00:28:50.312Z,17.8
2016-07-09T00:29:00.310Z,17.8
2016-07-09T00:29:10.303Z,17.9
2016-07-09T00:29:20.299Z,17.8
2016-07-09T00:29:30.292Z,17.8
2016-07-09T00:29:40.290Z,17.7
2016-07-09T00:29:50.283Z,17.7
2016-07-09T00:30:00.279Z,17.8
2016-07-09T00:30:10.275Z,17.7
2016-07-09T00:30:20.269Z,17.7
2016-07-09T00:30:30.265Z,17.7
2016-07-09T00:30:40.260Z,17.7
2016-07-09T00:30:50.255Z,17.7
2016-07-09T00:31:00.251Z,17.7
2016-07-09T00:31:10.246Z,17.7
2016-07-09T00:31:20.241Z,17.7
2016-07-09T00:31:30.235Z,17.7
2016-07-09T00:31:40.231Z,17.8
2016-07-09T00:31:50.226Z,17.7
2016-07-09T00:32:00.221Z,17.7
2016-07-09T00:32:10.217Z,17.7
2016-07-09T00:32:20.212Z,17.7
2016-07-09T00:32:30.206Z,17.8
2016-07-09T00:32:40.203Z,17.7
2016-07-09T00:32:50.197Z,17.7
2016-07-09T00:33:00.192Z,17.7
2016-07-09T00:33:10.187Z,17.7
2016-07-09T00:33:20.183Z,17.7
2016-07-09T00:33:30.183Z,17.7
2016-07-09T00:33:40.173Z,17.7
2016-07-09T00:33:50.169Z,17.7
2016-07-09T00:34:00.164Z,17.7
2016-07-09T00:34:10.160Z,17.7
2016-07-09T00:34:20.154Z,17.7
2016-07-09T00:34:30.150Z,17.7
2016-07-09T00:34:40.144Z,17.7
2016-07-09T00:34:50.140Z,17.7
2016-07-09T00:35:00.135Z,17.7
2016-07-09T00:35:10.130Z,17.7
2016-07-09T00:35:20.124Z,17.7
2016-07-09T00:35:30.120Z,17.7
2016-07-09T00:35:40.114Z,17.7
2016-07-09T00:35:50.112Z,17.6
2016-07-09T00:36:00.109Z,17.7
2016-07-09T00:36:10.101Z,17.7
2016-07-09T00:36:20.095Z,17.7
2016-07-09T00:36:30.091Z,17.7
2016-07-09T00:36:40.091Z,17.6
2016-07-09T00:36:50.082Z,17.7
2016-07-09T00:37:00.078Z,17.7
2016-07-09T00:37:10.072Z,17.6
2016-07-09T00:37:20.068Z,17.7
2016-07-09T00:37:30.064Z,17.7
2016-07-09T00:37:40.059Z,17.7
2016-07-09T00:37:50.053Z,17.7
2016-07-09T00:38:00.050Z,17.6
2016-07-09T00:38:10.043Z,17.7
2016-07-09T00:38:20.040Z,17.7
2016-07-09T00:38:30.036Z,17.7
2016-07-09T00:38:40.030Z,17.6
2016-07-09T00:38:50.025Z,17.6
2016-07-09T00:39:00.021Z,17.7
2016-07-09T00:39:10.014Z,17.6
2016-07-09T00:39:20.009Z,17.7
2016-07-09T00:39:30.004Z,17.6
2016-07-09T00:39:40.000Z,17.5
2016-07-09T00:39:49.996Z,17.6
2016-07-09T00:39:59.991Z,17.6
2016-07-09T00:40:09.986Z,17.6
2016-07-09T00:40:19.982Z,17.6
2016-07-09T00:40:29.977Z,17.6
2016-07-09T00:40:39.972Z,17.6
2016-07-09T00:40:49.967Z,17.5
2016-07-09T00:40:59.963Z,17.6
2016-07-09T00:41:09.958Z,17.5
2016-07-09T00:41:19.952Z,17.5
2016-07-09T00:41:29.954Z,17.6
2016-07-09T00:41:39.944Z,17.6
2016-07-09T00:41:49.939Z,17.5
2016-07-09T00:41:59.935Z,17.6
2016-07-09T00:42:09.928Z,17.6
2016-07-09T00:42:19.924Z,17.6
2016-07-09T00:42:29.919Z,17.6
2016-07-09T00:42:39.912Z,17.6
2016-07-09T00:42:49.910Z,17.6
2016-07-09T00:42:59.905Z,17.5
2016-07-09T00:43:09.899Z,17.5
2016-07-09T00:43:19.895Z,17.6
2016-07-09T00:43:29.890Z,17.6
2016-07-09T00:43:39.884Z,17.5
2016-07-09T00:43:49.880Z,17.6
2016-07-09T00:43:59.875Z,17.5
2016-07-09T00:44:09.870Z,17.6
2016-07-09T00:44:19.867Z,17.5
2016-07-09T00:44:29.863Z,17.5
2016-07-09T00:44:39.857Z,17.5
2016-07-09T00:44:49.851Z,17.5
2016-07-09T00:44:59.848Z,17.6
2016-07-09T00:45:09.843Z,17.6
2016-07-09T00:45:19.837Z,17.5
2016-07-09T00:45:29.832Z,17.5
2016-07-09T00:45:39.828Z,17.5
2016-07-09T00:45:49.822Z,17.5
2016-07-09T00:45:59.818Z,17.5
2016-07-09T00:46:09.813Z,17.5
2016-07-09T00:46:19.809Z,17.5
2016-07-09T00:46:29.803Z,17.6
2016-07-09T00:46:39.798Z,17.5
2016-07-09T00:46:49.793Z,17.5
2016-07-09T00:46:59.789Z,17.5
2016-07-09T00:47:09.783Z,17.5
2016-07-09T00:47:19.785Z,17.5
2016-07-09T00:47:29.774Z,17.5
2016-07-09T00:47:39.770Z,17.5
2016-07-09T00:47:49.767Z,17.5
2016-07-09T00:47:59.760Z,17.4
2016-07-09T00:48:09.756Z,17.5
2016-07-09T00:48:19.752Z,17.5
2016-07-09T00:48:29.745Z,17.5
2016-07-09T00:48:39.741Z,17.5
2016-07-09T00:48:49.735Z,17.5
2016-07-09T00:48:59.731Z,17.5
2016-07-09T00:49:09.726Z,17.5
2016-07-09T00:49:19.721Z,17.5
2016-07-09T00:49:29.717Z,17.5
2016-07-09T00:49:39.713Z,17.5
2016-07-09T00:49:49.706Z,17.5
2016-07-09T00:49:59.703Z,17.5
2016-07-09T00:50:09.698Z,17.5
2016-07-09T00:50:19.693Z,17.5
2016-07-09T00:50:29.688Z,17.5
2016-07-09T00:50:39.683Z,17.5
2016-07-09T00:50:49.678Z,17.5
2016-07-09T00:50:59.675Z,17.5
2016-07-09T00:51:09.671Z,17.5
2016-07-09T00:51:19.664Z,17.4
2016-07-09T00:51:29.660Z,17.4
2016-07-09T00:51:39.655Z,17.4
2016-07-09T00:51:49.658Z,17.4
2016-07-09T00:51:59.644Z,17.4
2016-07-09T00:52:09.640Z,17.4
2016-07-09T00:52:19.635Z,17.5
2016-07-09T00:52:29.630Z,17.4
2016-07-09T00:52:39.626Z,17.6
2016-07-09T00:52:49.620Z,17.5
2016-07-09T00:52:59.616Z,17.4
2016-07-09T00:53:09.611Z,17.5
2016-07-09T00:53:19.605Z,17.5
2016-07-09T00:53:29.601Z,17.5
2016-07-09T00:53:39.596Z,17.5
2016-07-09T00:53:49.591Z,17.5
2016-07-09T00:53:59.588Z,17.4
2016-07-09T00:54:09.582Z,17.4
2016-07-09T00:54:19.578Z,17.5
2016-07-09T00:54:29.574Z,17.4
2016-07-09T00:54:39.568Z,17.5
2016-07-09T00:54:49.562Z,17.5
2016-07-09T00:54:59.559Z,17.4
2016-07-09T00:55:09.554Z,17.4
2016-07-09T00:55:19.550Z,17.4
2016-07-09T00:55:29.543Z,17.5
2016-07-09T00:55:39.539Z,17.5
2016-07-09T00:55:49.534Z,17.5
2016-07-09T00:55:59.531Z,17.5
2016-07-09T00:56:09.523Z,17.4
2016-07-09T00:56:19.520Z,17.4
2016-07-09T00:56:29.513Z,17.5
2016-07-09T00:56:39.510Z,17.5
2016-07-09T00:56:49.504Z,17.4
2016-07-09T00:56:59.500Z,17.5
2016-07-09T00:57:09.496Z,17.5
2016-07-09T00:57:19.491Z,17.4
2016-07-09T00:57:29.486Z,17.4
2016-07-09T00:57:39.481Z,17.5
2016-07-09T00:57:49.489Z,17.4
2016-07-09T00:57:59.471Z,17.5
2016-07-09T00:58:09.466Z,17.4
2016-07-09T00:58:19.461Z,17.4
2016-07-09T00:58:29.457Z,17.4
2016-07-09T00:58:39.451Z,17.4
2016-07-09T00:58:49.448Z,17.5
2016-07-09T00:58:59.443Z,17.4
2016-07-09T00:59:09.438Z,17.4
2016-07-09T00:59:19.433Z,17.5
2016-07-09T00:59:29.427Z,17.4
2016-07-09T00:59:39.422Z,17.4
2016-07-09T00:59:49.419Z,17.4
2016-07-09T00:59:59.413Z,17.4
2016-07-09T01:00:09.414Z,17.4
2016-07-09T01:00:19.404Z,17.4
2016-07-09T01:00:29.398Z,17.4
2016-07-09T01:00:39.394Z,17.4
2016-07-09T01:00:49.389Z,17.4
2016-07-09T01:00:59.384Z,17.4
2016-07-09T01:01:09.381Z,17.4
2016-07-09T01:01:19.375Z,17.4
2016-07-09T01:01:29.372Z,17.4
2016-07-09T01:01:39.366Z,17.4
2016-07-09T01:01:49.362Z,17.4
2016-07-09T01:01:59.356Z,17.4
2016-07-09T01:02:09.352Z,17.5
2016-07-09T01:02:19.355Z,17.4
2016-07-09T01:02:29.341Z,17.4
2016-07-09T01:02:39.335Z,17.5
2016-07-09T01:02:49.331Z,17.5
2016-07-09T01:02:59.327Z,17.4
2016-07-09T01:03:09.321Z,17.4
2016-07-09T01:03:19.316Z,17.4
2016-07-09T01:03:29.312Z,17.4
2016-07-09T01:03:39.307Z,17.4
2016-07-09T01:03:49.303Z,17.5
2016-07-09T01:03:59.297Z,17.4
2016-07-09T01:04:09.293Z,17.4
2016-07-09T01:04:19.288Z,17.4
2016-07-09T01:04:29.283Z,17.5
2016-07-09T01:04:39.279Z,17.4
2016-07-09T01:04:49.273Z,17.3
2016-07-09T01:04:59.269Z,17.4
2016-07-09T01:05:09.264Z,17.4
2016-07-09T01:05:19.258Z,17.4
2016-07-09T01:05:29.254Z,17.4
2016-07-09T01:05:39.250Z,17.4
2016-07-09T01:05:49.249Z,17.4
2016-07-09T01:05:59.240Z,17.4
2016-07-09T01:06:09.239Z,17.4
2016-07-09T01:06:19.230Z,17.4
2016-07-09T01:06:29.226Z,17.4
2016-07-09T01:06:39.224Z,17.4
2016-07-09T01:06:49.216Z,17.4
2016-07-09T01:06:59.212Z,17.3
2016-07-09T01:07:09.206Z,17.4
2016-07-09T01:07:19.200Z,17.3
2016-07-09T01:07:29.196Z,17.4
2016-07-09T01:07:39.192Z,17.4
2016-07-09T01:07:49.187Z,17.4
2016-07-09T01:07:59.182Z,17.3
2016-07-09T01:08:09.177Z,17.4
2016-07-09T01:08:19.174Z,17.3
2016-07-09T01:08:29.167Z,17.3
2016-07-09T01:08:39.164Z,17.3
2016-07-09T01:08:49.157Z,17.4
2016-07-09T01:08:59.153Z,17.5
2016-07-09T01:09:09.149Z,17.4
2016-07-09T01:09:19.143Z,17.4
2016-07-09T01:09:29.139Z,17.4
2016-07-09T01:09:39.134Z,17.4
2016-07-09T01:09:49.129Z,17.4
2016-07-09T01:09:59.124Z,17.3
2016-07-09T01:10:09.118Z,17.3
2016-07-09T01:10:19.114Z,17.4
2016-07-09T01:10:29.110Z,17.4
2016-07-09T01:10:39.105Z,17.4
2016-07-09T01:10:49.101Z,17.4
2016-07-09T01:10:59.096Z,17.4
2016-07-09T01:11:09.091Z,17.4
2016-07-09T01:11:19.087Z,17.3
2016-07-09T01:11:29.080Z,17.4
2016-07-09T01:11:39.076Z,17.4
2016-07-09T01:11:49.071Z,17.4
2016-07-09T01:11:59.065Z,17.4
2016-07-09T01:12:09.062Z,17.3
2016-07-09T01:12:19.056Z,17.3
2016-07-09T01:12:29.058Z,17.3
2016-07-09T01:12:39.046Z,17.3
2016-07-09T01:12:49.042Z,17.4
2016-07-09T01:12:59.036Z,17.4
2016-07-09T01:13:09.032Z,17.3
2016-07-09T01:13:19.032Z,17.3
2016-07-09T01:13:29.023Z,17.3
2016-07-09T01:13:39.018Z,17.4
2016-07-09T01:13:49.012Z,17.3
2016-07-09T01:13:59.008Z,17.3
2016-07-09T01:14:09.003Z,17.3
2016-07-09T01:14:18.998Z,17.3
2016-07-09T01:14:28.994Z,17.3
2016-07-09T01:14:38.988Z,17.3
2016-07-09T01:14:48.984Z,17.3
2016-07-09T01:14:58.980Z,17.3
2016-07-09T01:15:08.974Z,17.3
2016-07-09T01:15:18.971Z,17.3
2016-07-09T01:15:28.965Z,17.4
2016-07-09T01:15:38.960Z,17.3
2016-07-09T01:15:48.955Z,17.3
2016-07-09T01:15:58.949Z,17.3
2016-07-09T01:16:08.944Z,17.2
2016-07-09T01:16:18.940Z,17.2
2016-07-09T01:16:28.934Z,17.3
2016-07-09T01:16:38.935Z,17.3
2016-07-09T01:16:48.925Z,17.3
2016-07-09T01:16:58.921Z,17.3
2016-07-09T01:17:08.915Z,17.3
2016-07-09T01:17:18.910Z,17.3
2016-07-09T01:17:28.906Z,17.3
2016-07-09T01:17:38.904Z,17.3
2016-07-09T01:17:48.897Z,17.3
2016-07-09T01:17:58.893Z,17.2
2016-07-09T01:18:08.888Z,17.3
2016-07-09T01:18:18.882Z,17.2
2016-07-09T01:18:28.878Z,17.2
2016-07-09T01:18:38.872Z,17.3
2016-07-09T01:18:48.868Z,17.3
2016-07-09T01:18:58.863Z,17.3
2016-07-09T01:19:08.858Z,17.3
2016-07-09T01:19:18.854Z,17.3
2016-07-09T01:19:28.848Z,17.3
2016-07-09T01:19:38.844Z,17.3
2016-07-09T01:19:48.839Z,17.2
2016-07-09T01:19:58.834Z,17.2
2016-07-09T01:20:08.829Z,17.3
2016-07-09T01:20:18.824Z,17.2
2016-07-09T01:20:28.819Z,17.3
2016-07-09T01:20:38.815Z,17.3
2016-07-09T01:20:48.811Z,17.3
2016-07-09T01:20:58.805Z,17.2
2016-07-09T01:21:08.802Z,17.2
2016-07-09T01:21:18.796Z,17.2
2016-07-09T01:21:28.790Z,17.2
2016-07-09T01:21:38.787Z,17.2
2016-07-09T01:21:48.782Z,17.2
2016-07-09T01:21:58.776Z,17.3
2016-07-09T01:22:08.771Z,17.3
2016-07-09T01:22:18.767Z,17.2
2016-07-09T01:22:28.762Z,17.3
2016-07-09T01:22:38.755Z,17.2
2016-07-09T01:22:48.752Z,17.3
2016-07-09T01:22:58.748Z,17.3
2016-07-09T01:23:08.742Z,17.2
2016-07-09T01:23:18.737Z,17.3
2016-07-09T01:23:28.732Z,17.3
2016-07-09T01:23:38.726Z,17.2
2016-07-09T01:23:48.723Z,17.2
2016-07-09T01:23:58.718Z,17.3
2016-07-09T01:24:08.713Z,17.3
2016-07-09T01:24:18.709Z,17.2
2016-07-09T01:24:28.704Z,17.2
2016-07-09T01:24:38.700Z,17.2
2016-07-09T01:24:48.694Z,17.2
2016-07-09T01:24:58.689Z,17.3
2016-07-09T01:25:08.685Z,17.2
2016-07-09T01:25:18.680Z,17.2
2016-07-09T01:25:28.675Z,17.2
2016-07-09T01:25:38.670Z,17.1
2016-07-09T01:25:48.664Z,17.2
2016-07-09T01:25:58.660Z,17.2
2016-07-09T01:26:08.654Z,17.2
2016-07-09T01:26:18.649Z,17.2
2016-07-09T01:26:28.647Z,17.1
2016-07-09T01:26:38.639Z,17.3
2016-07-09T01:26:48.635Z,17.2
2016-07-09T01:26:58.635Z,17.3
2016-07-09T01:27:08.626Z,17.3
2016-07-09T01:27:18.621Z,17.3
2016-07-09T01:27:28.616Z,17.3
2016-07-09T01:27:38.612Z,17.3
2016-07-09T01:27:48.606Z,17.3
2016-07-09T01:27:58.601Z,17.2
2016-07-09T01:28:08.597Z,17.3
2016-07-09T01:28:18.593Z,17.3
2016-07-09T01:28:28.589Z,17.2
2016-07-09T01:28:38.583Z,17.1
2016-07-09T01:28:48.578Z,17.3
2016-07-09T01:28:58.572Z,17.2
2016-07-09T01:29:08.568Z,17.3
2016-07-09T01:29:18.563Z,17.2
2016-07-09T01:29:28.558Z,17.3
2016-07-09T01:29:38.553Z,17.3
2016-07-09T01:29:48.547Z,17.2
2016-07-09T01:29:58.544Z,17.2
2016-07-09T01:30:08.538Z,17.3
2016-07-09T01:30:18.535Z,17.2
2016-07-09T01:30:28.530Z,17.2
2016-07-09T01:30:38.524Z,17.2
2016-07-09T01:30:48.518Z,17.2
2016-07-09T01:30:58.515Z,17.3
2016-07-09T01:31:08.508Z,17.2
2016-07-09T01:31:18.505Z,17.2
2016-07-09T01:31:28.501Z,17.3
2016-07-09T01:31:38.496Z,17.3
2016-07-09T01:31:48.492Z,17.3
2016-07-09T01:31:58.484Z,17.3
2016-07-09T01:32:08.480Z,17.3
2016-07-09T01:32:18.475Z,17.3
2016-07-09T01:32:28.470Z,17.3
2016-07-09T01:32:38.467Z,17.3
2016-07-09T01:32:48.461Z,17.3
2016-07-09T01:32:58.456Z,17.3
2016-07-09T01:33:08.452Z,17.3
2016-07-09T01:33:18.446Z,17.3
2016-07-09T01:33:28.442Z,17.3
2016-07-09T01:33:38.437Z,17.3
2016-07-09T01:33:48.431Z,17.3
2016-07-09T01:33:58.427Z,17.3
2016-07-09T01:34:08.422Z,17.3
2016-07-09T01:34:18.418Z,17.3
2016-07-09T01:34:28.414Z,17.3
2016-07-09T01:34:38.408Z,17.4
2016-07-09T01:34:48.404Z,17.2
2016-07-09T01:34:58.400Z,17.2
2016-07-09T01:35:08.393Z,17.3
2016-07-09T01:35:18.392Z,17.3
2016-07-09T01:35:28.383Z,17.2
2016-07-09T01:35:38.379Z,17.4
2016-07-09T01:35:48.373Z,17.3
2016-07-09T01:35:58.369Z,17.3
2016-07-09T01:36:08.363Z,17.4
2016-07-09T01:36:18.360Z,17.4
2016-07-09T01:36:28.354Z,17.3
2016-07-09T01:36:38.349Z,17.3
2016-07-09T01:36:48.344Z,17.3
2016-07-09T01:36:58.339Z,17.4
2016-07-09T01:37:08.335Z,17.2
2016-07-09T01:37:18.330Z,17.3
2016-07-09T01:37:28.327Z,17.4
2016-07-09T01:37:38.321Z,17.3
2016-07-09T01:37:48.315Z,17.4
2016-07-09T01:37:58.312Z,17.2
2016-07-09T01:38:08.307Z,17.4
2016-07-09T01:38:18.301Z,17.4
2016-07-09T01:38:28.299Z,17.4
2016-07-09T01:38:38.291Z,17.3
2016-07-09T01:38:48.287Z,17.3
2016-07-09T01:38:58.281Z,17.3
2016-07-09T01:39:08.276Z,17.4
2016-07-09T01:39:18.272Z,17.3
2016-07-09T01:39:28.265Z,17.3
2016-07-09T01:39:38.262Z,17.4
2016-07-09T01:39:48.257Z,17.3
2016-07-09T01:39:58.251Z,17.4
2016-07-09T01:40:08.247Z,17.3
2016-07-09T01:40:18.243Z,17.4
2016-07-09T01:40:28.237Z,17.3
2016-07-09T01:40:38.237Z,17.2
2016-07-09T01:40:48.228Z,17.3
2016-07-09T01:40:58.223Z,17.3
2016-07-09T01:41:08.220Z,17.3
2016-07-09T01:41:18.213Z,17.3
2016-07-09T01:41:28.209Z,17.3
2016-07-09T01:41:38.204Z,17.3
2016-07-09T01:41:48.199Z,17.2
2016-07-09T01:41:58.193Z,17.3
2016-07-09T01:42:08.188Z,17.2
2016-07-09T01:42:18.184Z,17.3
2016-07-09T01:42:28.180Z,17.3
2016-07-09T01:42:38.174Z,17.4
2016-07-09T01:42:48.170Z,17.3
2016-07-09T01:42:58.165Z,17.3
2016-07-09T01:43:08.159Z,17.2
2016-07-09T01:43:18.159Z,17.3
2016-07-09T01:43:28.150Z,17.3
2016-07-09T01:43:38.145Z,17.2
2016-07-09T01:43:48.140Z,17.3
2016-07-09T01:43:58.136Z,17.3
2016-07-09T01:44:08.130Z,17.3
2016-07-09T01:44:18.126Z,17.3
2016-07-09T01:44:28.121Z,17.3
2016-07-09T01:44:38.117Z,17.3
2016-07-09T01:44:48.109Z,17.2
2016-07-09T01:44:58.106Z,17.3
2016-07-09T01:45:08.102Z,17.3
2016-07-09T01:45:18.097Z,17.3
2016-07-09T01:45:28.092Z,17.3
2016-07-09T01:45:38.093Z,17.3
2016-07-09T01:45:48.082Z,17.3
2016-07-09T01:45:58.077Z,17.3
2016-07-09T01:46:08.072Z,17.3
2016-07-09T01:46:18.068Z,17.2
2016-07-09T01:46:28.063Z,17.3
2016-07-09T01:46:38.057Z,17.3
2016-07-09T01:46:48.054Z,17.3
2016-07-09T01:46:58.048Z,17.3
2016-07-09T01:47:08.044Z,17.3
2016-07-09T01:47:18.040Z,17.3
2016-07-09T01:47:28.033Z,17.3
2016-07-09T01:47:38.029Z,17.3
2016-07-09T01:47:48.024Z,17.3
2016-07-09T01:47:58.019Z,17.3
2016-07-09T01:48:08.015Z,17.3
2016-07-09T01:48:18.010Z,17.3
2016-07-09T01:48:28.011Z,17.3
2016-07-09T01:48:38.000Z,17.3
2016-07-09T01:48:47.995Z,17.3
2016-07-09T01:48:57.990Z,17.4
2016-07-09T01:49:07.986Z,17.3
2016-07-09T01:49:17.980Z,17.2
2016-07-09T01:49:27.975Z,17.3
2016-07-09T01:49:37.971Z,17.3
2016-07-09T01:49:47.966Z,17.3
2016-07-09T01:49:57.961Z,17.3
2016-07-09T01:50:07.956Z,17.3
2016-07-09T01:50:17.951Z,17.4
2016-07-09T01:50:27.948Z,17.3
2016-07-09T01:50:37.941Z,17.3
2016-07-09T01:50:47.937Z,17.3
2016-07-09T01:50:57.932Z,17.3
2016-07-09T01:51:07.928Z,17.4
2016-07-09T01:51:17.922Z,17.4
2016-07-09T01:51:27.917Z,17.3
2016-07-09T01:51:37.912Z,17.4
2016-07-09T01:51:47.908Z,17.4
2016-07-09T01:51:57.902Z,17.3
2016-07-09T01:52:07.897Z,17.3
2016-07-09T01:52:17.892Z,17.3
2016-07-09T01:52:27.888Z,17.4
2016-07-09T01:52:37.883Z,17.4
2016-07-09T01:52:47.878Z,17.4
2016-07-09T01:52:57.874Z,17.3
2016-07-09T01:53:07.870Z,17.4
2016-07-09T01:53:17.863Z,17.4
2016-07-09T01:53:27.858Z,17.4
2016-07-09T01:53:37.856Z,17.4
2016-07-09T01:53:47.849Z,17.4
2016-07-09T01:53:57.845Z,17.3
2016-07-09T01:54:07.839Z,17.4
2016-07-09T01:54:17.835Z,17.3
2016-07-09T01:54:27.832Z,17.4
2016-07-09T01:54:37.825Z,17.3
2016-07-09T01:54:47.821Z,17.4
2016-07-09T01:54:57.816Z,17.4
2016-07-09T01:55:07.809Z,17.4
2016-07-09T01:55:17.804Z,17.4
2016-07-09T01:55:27.801Z,17.3
2016-07-09T01:55:37.796Z,17.3
2016-07-09T01:55:47.792Z,17.3
2016-07-09T01:55:57.785Z,17.4
2016-07-09T01:56:07.782Z,17.3
2016-07-09T01:56:17.777Z,17.3
2016-07-09T01:56:27.772Z,17.4
2016-07-09T01:56:37.767Z,17.5
2016-07-09T01:56:47.762Z,17.3
2016-07-09T01:56:57.757Z,17.4
2016-07-09T01:57:07.753Z,17.4
2016-07-09T01:57:17.748Z,17.4
2016-07-09T01:57:27.743Z,17.4
2016-07-09T01:57:37.738Z,17.4
2016-07-09T01:57:47.733Z,17.3
2016-07-09T01:57:57.729Z,17.4
2016-07-09T01:58:07.722Z,17.3
2016-07-09T01:58:17.718Z,17.4
2016-07-09T01:58:27.712Z,17.3
2016-07-09T01:58:37.708Z,17.4
2016-07-09T01:58:47.703Z,17.4
2016-07-09T01:58:57.700Z,17.4
2016-07-09T01:59:07.694Z,17.4
2016-07-09T01:59:17.690Z,17.3
2016-07-09T01:59:27.683Z,17.4
2016-07-09T01:59:37.680Z,17.4
2016-07-09T01:59:47.674Z,17.4
2016-07-09T01:59:57.670Z,17.4
2016-07-09T02:00:07.665Z,17.4
2016-07-09T02:00:17.660Z,17.3
2016-07-09T02:00:27.655Z,17.4
2016-07-09T02:00:37.650Z,17.3
2016-07-09T02:00:47.646Z,17.4
2016-07-09T02:00:57.640Z,17.4
2016-07-09T02:01:07.636Z,17.4
2016-07-09T02:01:17.630Z,17.3
2016-07-09T02:01:27.626Z,17.4
2016-07-09T02:01:37.622Z,17.4
2016-07-09T02:01:47.616Z,17.4
2016-07-09T02:01:57.612Z,17.4
2016-07-09T02:02:07.606Z,17.4
2016-07-09T02:02:17.600Z,17.3
2016-07-09T02:02:27.597Z,17.4
2016-07-09T02:02:37.592Z,17.4
2016-07-09T02:02:47.587Z,17.3
2016-07-09T02:02:57.583Z,17.4
2016-07-09T02:03:07.578Z,17.4
2016-07-09T02:03:17.572Z,17.4
2016-07-09T02:03:27.567Z,17.4
2016-07-09T02:03:37.563Z,17.4
2016-07-09T02:03:47.558Z,17.4
2016-07-09T02:03:57.552Z,17.4
2016-07-09T02:04:07.548Z,17.4
2016-07-09T02:04:17.542Z,17.4
2016-07-09T02:04:27.538Z,17.4
2016-07-09T02:04:37.534Z,17.4
2016-07-09T02:04:47.529Z,17.4
2016-07-09T02:04:57.524Z,17.4
2016-07-09T02:05:07.519Z,17.5
2016-07-09T02:05:17.513Z,17.4
2016-07-09T02:05:27.508Z,17.4
2016-07-09T02:05:37.505Z,17.5
2016-07-09T02:05:47.500Z,17.4
2016-07-09T02:05:57.495Z,17.5
2016-07-09T02:06:07.490Z,17.5
2016-07-09T02:06:17.486Z,17.4
2016-07-09T02:06:27.480Z,17.4
2016-07-09T02:06:37.475Z,17.4
2016-07-09T02:06:47.470Z,17.5
2016-07-09T02:06:57.467Z,17.4
2016-07-09T02:07:07.461Z,17.4
2016-07-09T02:07:17.456Z,17.4
2016-07-09T02:07:27.451Z,17.4
2016-07-09T02:07:37.447Z,17.5
2016-07-09T02:07:47.441Z,17.4
2016-07-09T02:07:57.436Z,17.4
2016-07-09T02:08:07.432Z,17.4
2016-07-09T02:08:17.427Z,17.4
2016-07-09T02:08:27.421Z,17.4
2016-07-09T02:08:37.417Z,17.4
2016-07-09T02:08:47.411Z,17.4
2016-07-09T02:08:57.407Z,17.4
2016-07-09T02:09:07.401Z,17.4
2016-07-09T02:09:17.397Z,17.5
2016-07-09T02:09:27.392Z,17.4
2016-07-09T02:09:37.388Z,17.4
2016-07-09T02:09:47.382Z,17.4
2016-07-09T02:09:57.378Z,17.4
2016-07-09T02:10:07.374Z,17.4
2016-07-09T02:10:17.368Z,17.4
2016-07-09T02:10:27.365Z,17.4
2016-07-09T02:10:37.358Z,17.4
2016-07-09T02:10:47.354Z,17.4
2016-07-09T02:10:57.350Z,17.4
2016-07-09T02:11:07.343Z,17.4
2016-07-09T02:11:17.339Z,17.4
2016-07-09T02:11:27.333Z,17.5
2016-07-09T02:11:37.330Z,17.5
2016-07-09T02:11:47.324Z,17.4
2016-07-09T02:11:57.318Z,17.5
2016-07-09T02:12:07.314Z,17.5
2016-07-09T02:12:17.310Z,17.5
2016-07-09T02:12:27.304Z,17.5
2016-07-09T02:12:37.301Z,17.5
2016-07-09T02:12:47.295Z,17.5
2016-07-09T02:12:57.290Z,17.5
2016-07-09T02:13:07.287Z,17.5
2016-07-09T02:13:17.281Z,17.5